Time;durP1;ratioP1;P1;durP2;ratioP2;P2;SDS_P1;SDS_P2;PMS_P1;PMS_P2;Temp;Humidity;BMP_temperature;BMP_pressure;BME280_temperature;BME280_humidity;BME280_pressure;Samples;Min_cycle;Max_cycle;Signal;HPM_P1;HPM_P2
2023/03/19 00:00:17;;;;;;;13.15;9.43;;;10.90;99.90;;;;;;5044540;28;20017;-44
2023/03/19 00:02:48;;;;;;;14.20;9.68;;;10.90;99.90;;;;;;5042795;28;20021;-46
2023/03/19 00:05:14;;;;;;;15.60;9.60;;;10.90;99.90;;;;;;5043610;28;20028;-44
2023/03/19 00:07:40;;;;;;;14.95;9.13;;;10.90;99.90;;;;;;5042704;28;20406;-44
2023/03/19 00:10:05;;;;;;;16.38;11.48;;;10.90;99.90;;;;;;5043251;28;20495;-44
2023/03/19 00:12:31;;;;;;;14.90;10.52;;;10.80;99.90;;;;;;5044372;28;20100;-44
2023/03/19 00:14:56;;;;;;;16.60;9.98;;;10.80;99.90;;;;;;5045780;28;20139;-44
2023/03/19 00:17:22;;;;;;;14.85;11.55;;;10.80;99.90;;;;;;5044369;28;20021;-44
2023/03/19 00:19:47;;;;;;;15.63;10.57;;;10.80;99.90;;;;;;5040839;28;20438;-44
2023/03/19 00:22:13;;;;;;;16.92;10.60;;;10.70;99.90;;;;;;5043826;28;20021;-44
2023/03/19 00:24:38;;;;;;;13.45;9.90;;;10.80;99.90;;;;;;5056527;28;20041;-44
2023/03/19 00:27:04;;;;;;;14.25;9.50;;;10.80;99.90;;;;;;5048913;28;20040;-44
2023/03/19 00:29:30;;;;;;;11.98;8.88;;;10.80;99.90;;;;;;5046446;28;20378;-45
2023/03/19 00:31:55;;;;;;;13.07;9.13;;;10.80;99.90;;;;;;5041627;28;20015;-44
2023/03/19 00:34:21;;;;;;;10.45;8.00;;;10.80;99.90;;;;;;5044044;28;20437;-44
2023/03/19 00:36:47;;;;;;;10.25;7.07;;;10.80;99.90;;;;;;5040963;28;20102;-44
2023/03/19 00:39:13;;;;;;;7.93;5.70;;;10.80;99.90;;;;;;5044291;28;20314;-46
2023/03/19 00:41:39;;;;;;;8.38;5.43;;;10.80;99.90;;;;;;5044195;28;20027;-45
2023/03/19 00:44:05;;;;;;;6.97;5.03;;;10.80;99.90;;;;;;5042462;28;20029;-45
2023/03/19 00:46:31;;;;;;;6.10;5.00;;;10.90;99.90;;;;;;5042319;28;20029;-44
2023/03/19 00:48:57;;;;;;;6.55;4.43;;;10.90;99.90;;;;;;5045987;28;20063;-45
2023/03/19 00:51:23;;;;;;;8.00;4.50;;;10.90;99.90;;;;;;5043737;28;20036;-44
2023/03/19 00:53:50;;;;;;;5.90;4.25;;;10.90;99.90;;;;;;5041226;28;20082;-44
2023/03/19 00:56:17;;;;;;;5.35;3.72;;;10.90;99.90;;;;;;5048092;28;20025;-45
2023/03/19 00:58:43;;;;;;;5.70;3.60;;;10.90;99.90;;;;;;5046711;28;20013;-45
2023/03/19 01:01:11;;;;;;;5.72;3.10;;;10.90;99.90;;;;;;5043115;28;20028;-44
2023/03/19 01:03:36;;;;;;;3.33;2.92;;;11.00;99.90;;;;;;5043580;28;20021;-44
2023/03/19 01:06:02;;;;;;;3.15;2.80;;;10.90;99.90;;;;;;5040807;28;20112;-45
2023/03/19 01:08:28;;;;;;;4.45;2.97;;;10.90;99.90;;;;;;5043294;28;20036;-44
2023/03/19 01:10:53;;;;;;;5.25;3.28;;;11.00;99.90;;;;;;5040858;28;20080;-44
2023/03/19 01:13:19;;;;;;;7.07;3.28;;;10.90;99.90;;;;;;5043218;28;20032;-44
2023/03/19 01:15:45;;;;;;;4.53;3.08;;;11.00;99.90;;;;;;5040488;28;20032;-44
2023/03/19 01:18:11;;;;;;;4.22;3.55;;;10.90;99.90;;;;;;5043080;28;20485;-44
2023/03/19 01:20:39;;;;;;;4.55;3.10;;;10.90;99.90;;;;;;5041529;28;20438;-44
2023/03/19 01:23:05;;;;;;;4.45;3.10;;;11.00;99.90;;;;;;5042019;28;20549;-44
2023/03/19 01:25:32;;;;;;;4.13;3.00;;;10.90;99.90;;;;;;5045322;28;20021;-44
2023/03/19 01:27:58;;;;;;;5.30;3.33;;;10.90;99.90;;;;;;5045916;28;20028;-44
2023/03/19 01:30:23;;;;;;;4.43;3.13;;;10.90;99.90;;;;;;5042053;28;20014;-44
2023/03/19 01:32:49;;;;;;;7.57;3.40;;;10.90;99.90;;;;;;5040429;28;20072;-45
2023/03/19 01:35:14;;;;;;;5.30;2.88;;;10.90;99.90;;;;;;5042404;28;20112;-44
2023/03/19 01:37:40;;;;;;;4.40;3.13;;;10.90;99.90;;;;;;5041200;28;20024;-44
2023/03/19 01:40:07;;;;;;;5.35;3.72;;;10.90;99.90;;;;;;5042041;28;20033;-44
2023/03/19 01:42:33;;;;;;;5.45;3.83;;;11.00;99.90;;;;;;5042168;28;20032;-45
2023/03/19 01:45:01;;;;;;;4.15;3.17;;;10.90;99.90;;;;;;5042836;28;20021;-44
2023/03/19 01:47:40;;;;;;;3.47;2.53;;;10.90;99.90;;;;;;5042684;28;20044;-44
2023/03/19 01:50:30;;;;;;;3.50;2.97;;;10.90;99.90;;;;;;5041705;28;20025;-44
2023/03/19 01:52:56;;;;;;;3.33;2.53;;;10.80;99.90;;;;;;5040095;28;20029;-43
2023/03/19 01:55:21;;;;;;;3.13;2.78;;;10.80;99.90;;;;;;5045169;28;20029;-44
2023/03/19 01:57:47;;;;;;;4.35;2.90;;;10.70;99.90;;;;;;5045667;28;20095;-44
2023/03/19 02:00:13;;;;;;;3.58;2.83;;;10.70;99.90;;;;;;5041443;28;20257;-44
2023/03/19 02:02:40;;;;;;;2.97;2.53;;;10.60;99.90;;;;;;5040951;28;20020;-46
2023/03/19 02:05:13;;;;;;;4.93;3.35;;;10.50;99.90;;;;;;5040920;28;20056;-45
2023/03/19 02:07:42;;;;;;;2.75;2.42;;;10.40;99.90;;;;;;5040487;28;20029;-45
2023/03/19 02:10:12;;;;;;;3.20;2.50;;;10.30;99.90;;;;;;5042102;28;20032;-47
2023/03/19 02:12:37;;;;;;;2.45;2.25;;;10.30;99.90;;;;;;5041188;28;20043;-45
2023/03/19 02:15:04;;;;;;;2.88;2.28;;;10.20;99.90;;;;;;5041133;28;20033;-44
2023/03/19 02:17:31;;;;;;;2.25;1.98;;;10.10;99.90;;;;;;5042111;28;20540;-45
2023/03/19 02:20:07;;;;;;;3.38;2.35;;;10.10;99.90;;;;;;5038925;28;20095;-45
2023/03/19 02:22:36;;;;;;;2.42;1.90;;;10.00;99.90;;;;;;5041720;28;20510;-44
2023/03/19 02:25:10;;;;;;;2.55;2.20;;;9.90;99.90;;;;;;5043059;28;20021;-44
2023/03/19 02:27:35;;;;;;;4.70;2.50;;;9.80;99.90;;;;;;5044021;28;20013;-44
2023/03/19 02:30:17;;;;;;;2.42;2.22;;;9.80;99.90;;;;;;5043356;28;20032;-44
2023/03/19 02:32:43;;;;;;;4.03;2.13;;;9.80;99.90;;;;;;5038874;28;20028;-44
2023/03/19 02:35:09;;;;;;;2.55;2.35;;;9.70;99.90;;;;;;5041409;28;20411;-44
2023/03/19 02:37:35;;;;;;;2.92;2.13;;;9.60;99.90;;;;;;5037794;28;20489;-44
2023/03/19 02:40:06;;;;;;;2.60;2.13;;;9.60;99.90;;;;;;5039429;28;20165;-47
2023/03/19 02:42:32;;;;;;;4.05;2.85;;;9.50;99.90;;;;;;5045945;28;20021;-45
2023/03/19 02:44:57;;;;;;;2.92;2.50;;;9.50;99.90;;;;;;5042654;28;20533;-46
2023/03/19 02:47:25;;;;;;;2.65;2.10;;;9.50;99.90;;;;;;5046621;28;20029;-44
2023/03/19 02:49:50;;;;;;;2.50;2.30;;;9.50;99.90;;;;;;5043423;28;20030;-44
2023/03/19 02:52:16;;;;;;;2.95;2.17;;;9.50;99.90;;;;;;5045787;28;20475;-45
2023/03/19 02:54:42;;;;;;;3.13;2.30;;;9.40;99.90;;;;;;5048304;28;20142;-46
2023/03/19 02:57:07;;;;;;;3.92;2.42;;;9.40;99.90;;;;;;5048419;28;20037;-44
2023/03/19 02:59:33;;;;;;;2.88;2.20;;;9.40;99.90;;;;;;5045606;28;20060;-44
2023/03/19 03:01:59;;;;;;;2.53;2.30;;;9.30;99.90;;;;;;5043771;28;20061;-44
2023/03/19 03:04:25;;;;;;;2.78;2.42;;;9.30;99.90;;;;;;5042669;28;20036;-43
2023/03/19 03:06:50;;;;;;;1.92;1.77;;;9.30;99.90;;;;;;5038724;28;20575;-44
2023/03/19 03:09:16;;;;;;;3.00;2.08;;;9.20;99.90;;;;;;5047543;28;20025;-44
2023/03/19 03:11:41;;;;;;;2.97;2.67;;;9.20;99.90;;;;;;5044200;28;20156;-44
2023/03/19 03:14:07;;;;;;;2.70;2.50;;;9.30;99.90;;;;;;5043552;28;20021;-44
2023/03/19 03:16:33;;;;;;;3.05;2.35;;;9.30;99.90;;;;;;5043845;28;20017;-44
2023/03/19 03:18:59;;;;;;;3.25;2.90;;;9.30;99.90;;;;;;5051492;28;20367;-44
2023/03/19 03:21:25;;;;;;;3.53;3.13;;;9.30;99.90;;;;;;5051202;28;20025;-44
2023/03/19 03:23:51;;;;;;;5.82;3.00;;;9.30;99.90;;;;;;5047809;28;20021;-43
2023/03/19 03:26:16;;;;;;;3.30;2.80;;;9.30;99.90;;;;;;5051088;28;20044;-44
2023/03/19 03:28:42;;;;;;;4.05;3.33;;;9.30;99.90;;;;;;5051256;28;20713;-44
2023/03/19 03:31:08;;;;;;;3.88;3.17;;;9.20;99.90;;;;;;5051254;28;20112;-43
2023/03/19 03:33:35;;;;;;;3.67;3.28;;;9.10;99.90;;;;;;5051400;28;20020;-44
2023/03/19 03:36:00;;;;;;;4.97;4.30;;;9.10;99.90;;;;;;5043946;28;20025;-43
2023/03/19 03:38:26;;;;;;;6.55;4.80;;;9.10;99.90;;;;;;5049192;28;20436;-44
2023/03/19 03:40:52;;;;;;;8.40;4.90;;;9.10;99.90;;;;;;5050939;28;20025;-44
2023/03/19 03:43:19;;;;;;;8.20;5.30;;;9.20;99.90;;;;;;5050805;28;20025;-44
2023/03/19 03:45:46;;;;;;;6.18;4.72;;;9.20;99.90;;;;;;5050273;28;20042;-44
2023/03/19 03:48:12;;;;;;;4.65;3.83;;;9.10;99.90;;;;;;5050703;28;20035;-44
2023/03/19 03:50:38;;;;;;;4.63;3.85;;;9.00;99.90;;;;;;5050346;28;20025;-44
2023/03/19 03:53:04;;;;;;;7.53;4.40;;;9.00;99.90;;;;;;5050613;28;20021;-43
2023/03/19 03:55:30;;;;;;;6.55;4.43;;;8.90;99.90;;;;;;5049983;28;20017;-44
2023/03/19 03:57:56;;;;;;;6.35;5.13;;;9.00;99.90;;;;;;5049104;28;20024;-44
2023/03/19 04:00:22;;;;;;;4.93;4.28;;;8.90;99.90;;;;;;5049743;28;20029;-44
2023/03/19 04:02:48;;;;;;;5.50;3.92;;;8.80;99.90;;;;;;5044296;28;20033;-44
2023/03/19 04:05:14;;;;;;;6.55;4.68;;;8.80;99.90;;;;;;5048278;28;20111;-44
2023/03/19 04:07:40;;;;;;;7.28;5.15;;;8.80;99.90;;;;;;5050771;28;20025;-45
2023/03/19 04:10:09;;;;;;;9.38;4.78;;;8.80;99.90;;;;;;5050569;28;20024;-46
2023/03/19 04:12:36;;;;;;;5.00;4.45;;;8.80;99.90;;;;;;5048809;28;20482;-44
2023/03/19 04:15:03;;;;;;;10.00;6.13;;;8.90;99.90;;;;;;5049791;28;20025;-45
2023/03/19 04:17:29;;;;;;;6.63;5.20;;;9.00;99.90;;;;;;5050255;28;20432;-44
2023/03/19 04:19:55;;;;;;;8.38;4.55;;;9.10;99.90;;;;;;5050283;28;20021;-46
2023/03/19 04:22:21;;;;;;;5.10;4.13;;;9.10;99.90;;;;;;5048550;28;20174;-44
2023/03/19 04:24:46;;;;;;;5.85;4.20;;;9.30;99.90;;;;;;5048046;28;20021;-46
2023/03/19 04:27:12;;;;;;;7.63;4.25;;;9.40;99.90;;;;;;5048593;28;20025;-45
2023/03/19 04:29:37;;;;;;;7.55;4.80;;;9.60;99.90;;;;;;5048471;28;20029;-44
2023/03/19 04:32:03;;;;;;;8.18;4.60;;;9.70;99.90;;;;;;5048451;28;20129;-45
2023/03/19 04:34:29;;;;;;;4.30;3.47;;;9.80;99.90;;;;;;5048332;28;20386;-44
2023/03/19 04:36:56;;;;;;;5.00;3.75;;;9.90;99.90;;;;;;5049315;28;20082;-46
2023/03/19 04:39:23;;;;;;;7.35;3.80;;;10.10;99.90;;;;;;5050124;28;20017;-44
2023/03/19 04:41:49;;;;;;;4.95;3.33;;;10.10;99.90;;;;;;5049810;28;20540;-44
2023/03/19 04:44:14;;;;;;;6.70;3.75;;;10.20;99.90;;;;;;5048183;28;20107;-43
2023/03/19 04:46:40;;;;;;;5.28;3.40;;;10.20;99.90;;;;;;5049694;28;20025;-46
2023/03/19 04:49:06;;;;;;;4.32;3.25;;;10.20;99.90;;;;;;5049824;28;20023;-44
2023/03/19 04:51:32;;;;;;;5.50;3.38;;;10.10;99.90;;;;;;5049073;28;20017;-44
2023/03/19 04:53:58;;;;;;;3.67;2.75;;;10.00;99.90;;;;;;5049392;28;20018;-44
2023/03/19 04:56:24;;;;;;;6.13;3.25;;;9.90;99.90;;;;;;5048931;28;20013;-44
2023/03/19 04:58:50;;;;;;;4.57;3.00;;;9.90;99.90;;;;;;5049545;28;20028;-45
2023/03/19 05:01:15;;;;;;;4.63;3.38;;;9.80;99.90;;;;;;5049723;28;20051;-44
2023/03/19 05:03:41;;;;;;;7.32;3.88;;;9.70;99.90;;;;;;5049558;28;20048;-44
2023/03/19 05:06:07;;;;;;;5.38;3.47;;;9.70;99.90;;;;;;5048727;28;20090;-44
2023/03/19 05:08:32;;;;;;;6.25;3.15;;;9.60;99.90;;;;;;5049476;28;20028;-44
2023/03/19 05:10:58;;;;;;;4.22;3.30;;;9.60;99.90;;;;;;5049308;28;20434;-44
2023/03/19 05:13:23;;;;;;;5.32;3.55;;;9.50;99.90;;;;;;5049261;28;20529;-44
2023/03/19 05:15:52;;;;;;;5.03;2.80;;;9.50;99.90;;;;;;5049047;28;20063;-45
2023/03/19 05:18:18;;;;;;;4.07;3.20;;;9.50;99.90;;;;;;5049831;28;20568;-47
2023/03/19 05:20:44;;;;;;;3.85;3.00;;;9.50;99.90;;;;;;5049378;28;20021;-45
2023/03/19 05:23:10;;;;;;;4.50;3.22;;;9.50;99.90;;;;;;5049150;28;20410;-44
2023/03/19 05:25:35;;;;;;;6.78;3.40;;;9.40;99.90;;;;;;5047387;28;20032;-44
2023/03/19 05:28:03;;;;;;;5.53;3.35;;;9.40;99.90;;;;;;5048826;28;20113;-44
2023/03/19 05:30:28;;;;;;;4.78;2.67;;;9.40;99.90;;;;;;5047779;28;20024;-44
2023/03/19 05:32:57;;;;;;;3.75;3.10;;;9.40;99.90;;;;;;5057118;28;20013;-44
2023/03/19 05:35:23;;;;;;;5.72;3.20;;;9.30;99.90;;;;;;5048121;28;20485;-43
2023/03/19 05:37:49;;;;;;;6.15;3.60;;;9.40;99.90;;;;;;5048416;28;20013;-44
2023/03/19 05:40:15;;;;;;;4.13;3.55;;;9.30;99.90;;;;;;5048758;28;20032;-45
2023/03/19 05:42:41;;;;;;;6.75;4.10;;;9.30;99.90;;;;;;5048688;28;20070;-44
2023/03/19 05:45:07;;;;;;;3.15;2.72;;;9.40;99.90;;;;;;5048327;28;20033;-44
2023/03/19 05:47:33;;;;;;;3.83;2.95;;;9.30;99.90;;;;;;5047396;28;20074;-48
2023/03/19 05:49:59;;;;;;;3.92;3.30;;;9.40;99.90;;;;;;5048888;28;20031;-45
2023/03/19 05:52:25;;;;;;;5.03;3.08;;;9.40;99.90;;;;;;5048578;28;20081;-47
2023/03/19 05:54:51;;;;;;;2.97;2.55;;;9.40;99.90;;;;;;5048347;28;20486;-44
2023/03/19 05:57:16;;;;;;;6.25;2.90;;;9.30;99.90;;;;;;5048355;28;20062;-45
2023/03/19 05:59:42;;;;;;;4.68;3.50;;;9.30;99.90;;;;;;5048827;28;20417;-46
2023/03/19 06:02:08;;;;;;;5.65;3.13;;;9.40;99.90;;;;;;5048574;28;20403;-45
2023/03/19 06:04:33;;;;;;;3.78;2.95;;;9.30;99.90;;;;;;5047682;28;20021;-44
2023/03/19 06:07:00;;;;;;;5.53;3.50;;;9.40;99.90;;;;;;5046755;28;20071;-45
2023/03/19 06:09:25;;;;;;;3.53;3.22;;;9.40;99.90;;;;;;5048636;28;20060;-45
2023/03/19 06:11:51;;;;;;;3.55;3.17;;;9.50;99.90;;;;;;5048579;28;20048;-44
2023/03/19 06:14:16;;;;;;;5.05;3.50;;;9.50;99.90;;;;;;5048312;28;20051;-45
2023/03/19 06:16:42;;;;;;;5.00;2.92;;;9.50;99.90;;;;;;5048255;28;20052;-44
2023/03/19 06:19:07;;;;;;;5.68;3.25;;;9.60;99.90;;;;;;5048253;28;20028;-44
2023/03/19 06:21:33;;;;;;;4.07;3.40;;;9.60;99.90;;;;;;5043183;28;20021;-44
2023/03/19 06:23:59;;;;;;;4.30;3.10;;;9.70;99.90;;;;;;5047341;28;20066;-44
2023/03/19 06:26:25;;;;;;;4.70;3.10;;;9.70;99.90;;;;;;5047420;28;20025;-44
2023/03/19 06:28:51;;;;;;;3.97;3.42;;;9.70;99.90;;;;;;5048382;28;20042;-44
2023/03/19 06:31:16;;;;;;;4.90;3.35;;;9.80;99.90;;;;;;5048066;28;20025;-44
2023/03/19 06:33:42;;;;;;;3.63;3.25;;;9.90;99.90;;;;;;5048112;28;20471;-46
2023/03/19 06:36:08;;;;;;;5.78;3.33;;;9.90;99.90;;;;;;5046246;28;20078;-44
2023/03/19 06:38:34;;;;;;;7.85;4.13;;;10.00;99.90;;;;;;5048207;28;20155;-45
2023/03/19 06:41:00;;;;;;;4.93;3.50;;;10.00;99.90;;;;;;5048390;28;20542;-47
2023/03/19 06:43:28;;;;;;;4.00;3.22;;;10.10;99.90;;;;;;5048242;28;20096;-44
2023/03/19 06:45:53;;;;;;;3.03;2.63;;;10.10;99.90;;;;;;5048109;28;20022;-44
2023/03/19 06:48:19;;;;;;;4.68;3.63;;;10.20;99.90;;;;;;5047980;28;20033;-44
2023/03/19 06:50:45;;;;;;;4.78;3.28;;;10.20;99.90;;;;;;5046814;28;20041;-44
2023/03/19 06:53:12;;;;;;;3.33;2.50;;;10.20;99.90;;;;;;5047746;28;20017;-44
2023/03/19 06:55:38;;;;;;;5.75;2.95;;;10.20;99.90;;;;;;5047769;28;20021;-45
2023/03/19 06:58:05;;;;;;;3.50;2.72;;;10.20;99.90;;;;;;5048117;28;20024;-45
2023/03/19 07:00:32;;;;;;;4.75;2.88;;;10.20;99.90;;;;;;5046822;28;20486;-45
2023/03/19 07:02:57;;;;;;;3.58;2.90;;;10.20;99.90;;;;;;5048229;28;20495;-44
2023/03/19 07:05:23;;;;;;;3.42;3.05;;;10.10;99.90;;;;;;5046630;28;20079;-44
2023/03/19 07:07:49;;;;;;;3.80;3.17;;;10.20;99.90;;;;;;5047881;28;20025;-44
2023/03/19 07:10:18;;;;;;;4.43;3.42;;;10.20;99.90;;;;;;5047964;28;20510;-44
2023/03/19 07:12:43;;;;;;;4.95;3.53;;;10.30;99.90;;;;;;5046808;28;20544;-44
2023/03/19 07:15:09;;;;;;;4.15;3.40;;;10.40;99.90;;;;;;5046896;28;20317;-44
2023/03/19 07:17:35;;;;;;;4.28;2.80;;;10.50;99.90;;;;;;5052064;28;20021;-45
2023/03/19 07:20:00;;;;;;;4.07;3.10;;;10.50;99.90;;;;;;5051596;28;20021;-45
2023/03/19 07:22:26;;;;;;;4.95;3.40;;;10.60;99.90;;;;;;5051287;28;20120;-44
2023/03/19 07:24:52;;;;;;;5.32;3.47;;;10.70;99.90;;;;;;5050900;28;20021;-48
2023/03/19 07:27:18;;;;;;;4.93;3.58;;;10.80;99.90;;;;;;5051448;28;20021;-45
2023/03/19 07:29:43;;;;;;;5.03;3.50;;;10.90;99.90;;;;;;5051275;28;20025;-44
2023/03/19 07:32:10;;;;;;;7.45;3.75;;;11.00;99.90;;;;;;5049978;28;20049;-45
2023/03/19 07:34:36;;;;;;;4.85;3.40;;;11.10;99.90;;;;;;5049723;28;20501;-45
2023/03/19 07:37:01;;;;;;;4.10;3.00;;;11.20;99.90;;;;;;5051382;28;20092;-45
2023/03/19 07:39:27;;;;;;;5.75;3.47;;;11.30;99.90;;;;;;5051335;28;20029;-45
2023/03/19 07:41:52;;;;;;;5.10;3.45;;;11.40;99.90;;;;;;5051417;28;20040;-45
2023/03/19 07:44:18;;;;;;;6.13;4.40;;;11.60;99.90;;;;;;5051173;28;20041;-46
2023/03/19 07:46:44;;;;;;;6.40;4.50;;;11.70;99.90;;;;;;5049273;28;20025;-47
2023/03/19 07:49:09;;;;;;;4.95;3.65;;;11.90;99.90;;;;;;5051131;28;20048;-46
2023/03/19 07:51:35;;;;;;;5.78;4.38;;;12.10;99.90;;;;;;5050707;28;20083;-48
2023/03/19 07:54:01;;;;;;;6.50;4.10;;;12.20;99.90;;;;;;5051017;28;20659;-45
2023/03/19 07:56:26;;;;;;;8.60;4.35;;;12.30;99.90;;;;;;5050770;28;20028;-45
2023/03/19 07:58:52;;;;;;;7.05;3.85;;;12.50;99.90;;;;;;5050826;28;20433;-45
2023/03/19 08:01:18;;;;;;;7.68;3.20;;;12.70;99.90;;;;;;5050683;28;20429;-45
2023/03/19 08:03:43;;;;;;;5.75;3.03;;;12.80;99.90;;;;;;5050872;28;20478;-46
2023/03/19 08:06:09;;;;;;;6.38;3.30;;;12.90;99.90;;;;;;5049977;28;20329;-45
2023/03/19 08:08:35;;;;;;;5.63;3.38;;;12.90;99.90;;;;;;5051024;28;20394;-45
2023/03/19 08:11:01;;;;;;;8.40;3.22;;;13.00;99.90;;;;;;5050987;28;20072;-45
2023/03/19 08:13:27;;;;;;;3.60;2.65;;;13.00;99.90;;;;;;5049300;28;20048;-45
2023/03/19 08:15:53;;;;;;;6.85;3.28;;;13.10;99.90;;;;;;5050449;28;20458;-45
2023/03/19 08:18:19;;;;;;;3.88;2.50;;;13.10;99.90;;;;;;5050626;28;20021;-45
2023/03/19 08:20:45;;;;;;;6.40;3.13;;;13.10;99.90;;;;;;5050828;28;20505;-44
2023/03/19 08:23:11;;;;;;;7.18;4.00;;;13.20;99.90;;;;;;5050105;28;20056;-45
2023/03/19 08:25:37;;;;;;;5.97;3.53;;;13.30;99.90;;;;;;5050144;28;20049;-45
2023/03/19 08:28:02;;;;;;;8.57;3.22;;;13.40;99.90;;;;;;5048211;28;20537;-47
2023/03/19 08:30:28;;;;;;;5.72;2.88;;;13.50;99.90;;;;;;5050317;28;20029;-45
2023/03/19 08:32:54;;;;;;;7.53;4.05;;;13.60;99.90;;;;;;5050177;28;20466;-45
2023/03/19 08:35:19;;;;;;;7.22;3.92;;;13.70;99.90;;;;;;5049826;28;20048;-44
2023/03/19 08:37:45;;;;;;;7.32;3.60;;;13.70;99.90;;;;;;5050063;28;20466;-45
2023/03/19 08:40:11;;;;;;;6.63;3.67;;;13.90;99.90;;;;;;5050401;28;20051;-45
2023/03/19 08:42:41;;;;;;;8.27;4.22;;;14.20;99.90;;;;;;5048645;28;20036;-46
2023/03/19 08:45:08;;;;;;;4.82;3.30;;;14.20;99.90;;;;;;5048483;28;20042;-46
2023/03/19 08:47:34;;;;;;;9.48;3.75;;;14.80;99.90;;;;;;5049621;28;20118;-47
2023/03/19 08:49:59;;;;;;;6.47;3.20;;;15.50;99.90;;;;;;5049986;28;20086;-45
2023/03/19 08:52:25;;;;;;;5.28;3.33;;;15.70;99.90;;;;;;5049308;28;20077;-44
2023/03/19 08:54:51;;;;;;;7.75;3.25;;;15.70;99.90;;;;;;5048066;28;20043;-45
2023/03/19 08:57:16;;;;;;;5.97;2.88;;;15.80;99.90;;;;;;5050013;28;20021;-45
2023/03/19 08:59:42;;;;;;;6.95;3.13;;;15.60;99.90;;;;;;5049464;28;20032;-46
2023/03/19 09:02:11;;;;;;;5.32;3.17;;;15.50;99.90;;;;;;5049479;28;20579;-42
2023/03/19 09:04:40;;;;;;;6.90;3.40;;;15.50;99.90;;;;;;5048972;28;20035;-43
2023/03/19 09:07:05;;;;;;;5.22;2.70;;;15.30;99.90;;;;;;5049651;28;20017;-42
2023/03/19 09:09:31;;;;;;;5.72;3.13;;;15.10;99.90;;;;;;5049804;28;20078;-45
2023/03/19 09:11:56;;;;;;;5.18;3.08;;;15.20;99.90;;;;;;5049977;28;20051;-45
2023/03/19 09:14:22;;;;;;;4.75;2.88;;;14.60;99.90;;;;;;5049168;28;20017;-44
2023/03/19 09:16:48;;;;;;;5.28;3.30;;;14.30;99.90;;;;;;5049191;28;20561;-44
2023/03/19 09:19:14;;;;;;;3.90;3.30;;;14.00;99.90;;;;;;5049636;28;20104;-45
2023/03/19 09:21:40;;;;;;;5.78;3.15;;;13.70;99.90;;;;;;5047849;28;20017;-44
2023/03/19 09:24:06;;;;;;;5.35;3.35;;;13.70;99.90;;;;;;5049225;28;20033;-45
2023/03/19 09:26:31;;;;;;;7.65;4.28;;;13.70;99.90;;;;;;5048920;28;20029;-49
2023/03/19 09:28:57;;;;;;;6.78;3.47;;;13.60;99.90;;;;;;5048952;28;20017;-44
2023/03/19 09:31:23;;;;;;;9.77;3.70;;;13.30;99.90;;;;;;5049109;28;20032;-45
2023/03/19 09:33:49;;;;;;;7.50;3.33;;;13.20;99.90;;;;;;5049085;28;20025;-44
2023/03/19 09:36:14;;;;;;;12.52;3.65;;;13.00;99.90;;;;;;5048748;28;20024;-44
2023/03/19 09:38:40;;;;;;;5.55;3.25;;;13.00;99.90;;;;;;5048693;28;20494;-45
2023/03/19 09:41:08;;;;;;;9.15;3.40;;;12.90;99.90;;;;;;5048945;28;20029;-45
2023/03/19 09:43:57;;;;;;;7.72;3.17;;;12.90;99.90;;;;;;5049203;28;20378;-45
2023/03/19 09:46:37;;;;;;;9.43;3.10;;;12.80;99.90;;;;;;5049046;28;20317;-44
2023/03/19 09:49:08;;;;;;;6.28;2.70;;;12.70;99.90;;;;;;5054365;28;20028;-44
2023/03/19 09:52:10;;;;;;;6.75;3.28;;;12.70;99.90;;;;;;5048163;28;20021;-45
2023/03/19 09:54:43;;;;;;;5.10;2.70;;;13.00;99.90;;;;;;5036757;28;20037;-45
2023/03/19 09:57:10;;;;;;;6.18;2.58;;;14.30;99.90;;;;;;5048703;28;20218;-47
2023/03/19 09:59:36;;;;;;;5.53;2.33;;;16.00;99.90;;;;;;5048672;28;20044;-43
2023/03/19 10:02:16;;;;;;;2.83;2.00;;;16.90;99.90;;;;;;5048892;28;20433;-43
2023/03/19 10:05:05;;;;;;;3.20;2.13;;;18.50;99.90;;;;;;5048234;28;20509;-43
2023/03/19 10:07:59;;;;;;;4.57;2.30;;;20.10;99.90;;;;;;5045097;28;20040;-43
2023/03/19 10:10:35;;;;;;;3.60;1.98;;;21.70;99.90;;;;;;5046750;28;20032;-44
2023/03/19 10:13:26;;;;;;;3.60;2.20;;;22.60;97.00;;;;;;5048321;28;20058;-43
2023/03/19 10:15:54;;;;;;;3.15;1.85;;;24.50;94.30;;;;;;5048043;28;20471;-43
2023/03/19 10:18:31;;;;;;;2.65;1.40;;;25.90;89.30;;;;;;5048749;28;20458;-44
2023/03/19 10:21:08;;;;;;;1.60;1.27;;;26.50;81.10;;;;;;5048369;28;20403;-44
2023/03/19 10:23:40;;;;;;;3.70;1.48;;;26.70;79.90;;;;;;5048138;28;20051;-44
2023/03/19 10:26:14;;;;;;;7.68;4.13;;;26.70;78.40;;;;;;5047918;28;20086;-43
2023/03/19 10:28:43;;;;;;;3.15;1.67;;;26.00;74.50;;;;;;5048337;28;20025;-44
2023/03/19 10:31:16;;;;;;;2.20;1.40;;;24.90;77.60;;;;;;5048413;28;20112;-43
2023/03/19 10:34:04;;;;;;;2.03;1.20;;;24.30;82.50;;;;;;5048014;28;20466;-43
2023/03/19 10:36:34;;;;;;;0.68;0.68;;;24.10;80.60;;;;;;5043329;28;20041;-43
2023/03/19 10:39:03;;;;;;;1.45;0.90;;;25.50;78.00;;;;;;5048146;28;20021;-43
2023/03/19 10:41:43;;;;;;;0.77;0.70;;;25.50;73.30;;;;;;5048549;28;20021;-45
2023/03/19 10:44:30;;;;;;;1.30;0.88;;;25.60;73.40;;;;;;5047007;28;20095;-44
2023/03/19 10:47:15;;;;;;;2.65;1.35;;;27.20;71.30;;;;;;5047881;28;20407;-43
2023/03/19 10:49:41;;;;;;;2.70;0.80;;;27.90;67.40;;;;;;5048257;28;20446;-44
2023/03/19 10:52:20;;;;;;;1.90;1.02;;;26.80;65.50;;;;;;5051758;28;20510;-44
2023/03/19 10:54:46;;;;;;;1.85;1.13;;;26.00;68.00;;;;;;5051419;28;20044;-43
2023/03/19 10:57:32;;;;;;;0.73;0.60;;;25.50;66.80;;;;;;5051733;28;20032;-44
2023/03/19 11:02:58;;;;;;;1.15;0.88;;;25.20;68.80;;;;;;5052414;28;20102;-43
2023/03/19 11:05:28;;;;;;;1.48;0.80;;;25.80;70.70;;;;;;5051763;28;20032;-44
2023/03/19 11:08:05;;;;;;;0.82;0.60;;;26.20;68.20;;;;;;5050459;28;20516;-45
2023/03/19 11:10:33;;;;;;;1.02;0.77;;;27.20;66.90;;;;;;5051751;28;20033;-45
2023/03/19 11:13:22;;;;;;;0.93;0.63;;;27.10;68.50;;;;;;5051768;28;20190;-45
2023/03/19 11:15:48;;;;;;;0.57;0.57;;;27.20;64.70;;;;;;5051418;28;20541;-45
2023/03/19 11:18:22;;;;;;;0.60;0.60;;;26.90;61.20;;;;;;5052101;28;20365;-44
2023/03/19 11:21:18;;;;;;;1.20;0.65;;;26.70;60.10;;;;;;5051696;28;20394;-44
2023/03/19 11:23:50;;;;;;;1.08;0.70;;;24.80;60.80;;;;;;5042414;28;20166;-44
2023/03/19 11:26:19;;;;;;;0.93;0.80;;;23.80;63.90;;;;;;5051255;28;20510;-44
2023/03/19 11:28:49;;;;;;;0.40;0.40;;;24.00;65.40;;;;;;5051862;28;20036;-44
2023/03/19 11:31:51;;;;;;;0.55;0.52;;;24.30;65.80;;;;;;5051491;28;20222;-44
2023/03/19 11:34:34;;;;;;;2.22;0.65;;;24.50;63.60;;;;;;5051420;28;20021;-44
2023/03/19 11:37:28;;;;;;;1.88;0.77;;;23.00;66.50;;;;;;5049661;28;20021;-44
2023/03/19 11:40:23;;;;;;;1.75;0.80;;;21.70;69.90;;;;;;5051138;28;20051;-44
2023/03/19 11:43:15;;;;;;;1.10;0.65;;;20.90;72.30;;;;;;5059572;28;20151;-46
2023/03/19 11:46:07;;;;;;;1.33;0.70;;;20.40;77.10;;;;;;5050470;28;20028;-43
2023/03/19 11:48:38;;;;;;;1.02;0.70;;;20.80;77.30;;;;;;5049459;28;20076;-44
2023/03/19 11:51:07;;;;;;;0.82;0.70;;;20.90;75.00;;;;;;5051040;28;20025;-44
2023/03/19 11:54:09;;;;;;;2.95;0.80;;;21.00;75.40;;;;;;5050933;28;20025;-43
2023/03/19 11:56:59;;;;;;;2.58;1.05;;;20.80;75.50;;;;;;5050452;28;20028;-46
2023/03/19 11:59:55;;;;;;;1.17;0.70;;;20.70;75.70;;;;;;5050704;28;20467;-44
2023/03/19 12:02:35;;;;;;;1.58;0.82;;;20.60;77.80;;;;;;5047372;28;20033;-44
2023/03/19 12:05:19;;;;;;;;;;;20.90;78.50;;;;;;5050943;28;20370;-44
2023/03/19 12:08:14;;;;;;;3.65;0.95;;;21.10;76.80;;;;;;5050374;28;19960;-44
2023/03/19 12:11:15;;;;;;;1.00;0.90;;;21.00;73.70;;;;;;5050755;28;20033;-43
2023/03/19 12:14:08;;;;;;;1.80;0.80;;;20.70;76.00;;;;;;5050591;28;20078;-43
2023/03/19 12:16:40;;;;;;;1.55;0.60;;;20.60;75.70;;;;;;5050476;28;20017;-43
2023/03/19 12:19:37;;;;;;;0.98;0.70;;;20.10;77.00;;;;;;5050772;28;20025;-44
2023/03/19 12:22:17;;;;;;;2.63;0.90;;;20.10;77.70;;;;;;5050176;28;20311;-44
2023/03/19 12:25:25;;;;;;;2.20;1.10;;;20.30;81.10;;;;;;5050269;28;20021;-45
2023/03/19 12:28:13;;;;;;;1.60;1.10;;;20.60;78.80;;;;;;5050437;28;20021;-45
2023/03/19 12:30:58;;;;;;;1.45;0.88;;;21.00;76.80;;;;;;5050563;28;20113;-44
2023/03/19 12:33:31;;;;;;;1.50;1.13;;;20.90;78.30;;;;;;5049484;28;20474;-46
2023/03/19 12:36:00;;;;;;;1.98;1.10;;;21.20;77.70;;;;;;5049940;28;20722;-46
2023/03/19 12:38:37;;;;;;;1.83;1.13;;;20.80;77.00;;;;;;5049708;28;20494;-44
2023/03/19 12:41:06;;;;;;;3.08;1.20;;;21.00;79.00;;;;;;5050445;28;20057;-43
2023/03/19 12:43:45;;;;;;;2.72;1.08;;;21.10;75.50;;;;;;5049973;28;20021;-43
2023/03/19 12:46:17;;;;;;;3.10;1.27;;;20.50;75.80;;;;;;5049631;28;20024;-45
2023/03/19 12:48:55;;;;;;;2.20;1.30;;;20.70;76.40;;;;;;5049749;28;20025;-43
2023/03/19 12:51:25;;;;;;;3.05;1.33;;;20.60;76.50;;;;;;5049881;28;20033;-44
2023/03/19 12:53:57;;;;;;;2.95;1.08;;;20.70;80.70;;;;;;5049397;28;20021;-44
2023/03/19 12:56:42;;;;;;;1.83;1.10;;;20.80;75.70;;;;;;5049292;28;20021;-45
2023/03/19 12:59:29;;;;;;;4.43;1.10;;;20.10;77.30;;;;;;5049983;28;20027;-46
2023/03/19 13:02:10;;;;;;;4.57;1.52;;;20.00;76.40;;;;;;5048523;28;20028;-43
2023/03/19 13:04:53;;;;;;;2.55;1.40;;;19.40;78.80;;;;;;5043721;28;20474;-44